Fairchild AFB, Washington
Current Conditions -  °F | °C
As of 7:58 AM on Wednesday 28 Jan 2015 (Local Time) from KSKA Reporting Station
Freezing Drizzle Freezing Drizzle  
Wind Chill: 32°   Ceiling: 200
Heat Index: 32°   Visibility: 0.25mi
Dew Point: 32°   Wind: 3mph
Humidity: 100%   Direction: 40°NE
Pressure: 30.31"   Gusts: NA
Location:  47.61°N, 117.64°W
Report Text: KSKA 281558Z 04003KT 1/4SM R23/3000FT -FZDZ FZFG VV002 00/00 A3031 RMK AO2A SLP291 P0000 T10021002
Loading
Personal Weather Stations






























Interactive Weather Map New forecast layout! Learn more

10-Day Weather Forecast

Advertisements
Track Severe Weather on mobile